Time;durP1;ratioP1;P1;durP2;ratioP2;P2;SDS_P1;SDS_P2;PMS_P1;PMS_P2;Temp;Humidity;BMP_temperature;BMP_pressure;BME280_temperature;BME280_humidity;BME280_pressure;Samples;Min_cycle;Max_cycle;Signal;HPM_P1;HPM_P2
2021/11/27 00:00:28;;;;;;;6.38;4.35;;;1.20;99.90;;;;;;5051163;28;20450;-73
2021/11/27 00:03:00;;;;;;;8.15;4.95;;;1.10;99.90;;;;;;5051198;28;20136;-73
2021/11/27 00:05:34;;;;;;;9.00;5.57;;;1.20;99.90;;;;;;5052464;28;20154;-73
2021/11/27 00:08:02;;;;;;;7.40;4.75;;;1.20;99.90;;;;;;5050321;28;20124;-73
2021/11/27 00:10:35;;;;;;;6.30;3.35;;;1.20;99.90;;;;;;5035131;28;20132;-73
2021/11/27 00:13:08;;;;;;;7.82;5.20;;;1.20;99.90;;;;;;5050551;28;20139;-73
2021/11/27 00:15:37;;;;;;;7.28;4.82;;;1.20;99.90;;;;;;5052164;28;20037;-73
2021/11/27 00:18:11;;;;;;;6.80;4.00;;;1.20;99.90;;;;;;5051774;28;20403;-73
2021/11/27 00:21:00;;;;;;;7.18;4.50;;;1.20;99.90;;;;;;5053814;28;20045;-73
2021/11/27 00:23:29;;;;;;;6.32;4.50;;;1.10;99.90;;;;;;5053148;28;20060;-73
2021/11/27 00:26:01;;;;;;;8.35;4.45;;;1.10;99.90;;;;;;5034914;28;20073;-73
2021/11/27 00:28:34;;;;;;;6.97;4.72;;;1.10;99.90;;;;;;5051719;28;20120;-73
2021/11/27 00:31:13;;;;;;;7.55;5.10;;;1.10;99.90;;;;;;5051098;28;20045;-73
2021/11/27 00:33:48;;;;;;;5.90;4.15;;;1.20;99.90;;;;;;5035958;28;20140;-73
2021/11/27 00:36:21;;;;;;;6.28;4.00;;;1.20;99.90;;;;;;5051608;28;20061;-72
2021/11/27 00:38:53;;;;;;;6.40;4.10;;;1.20;99.90;;;;;;5051780;28;20132;-73
2021/11/27 00:41:21;;;;;;;6.72;3.92;;;1.20;99.90;;;;;;5051764;28;20045;-73
2021/11/27 00:43:52;;;;;;;7.40;4.72;;;1.20;99.90;;;;;;5051637;28;20044;-72
2021/11/27 00:46:24;;;;;;;7.55;4.35;;;1.20;99.90;;;;;;5051517;28;20124;-73
2021/11/27 00:48:56;;;;;;;6.20;4.07;;;1.20;99.90;;;;;;5052978;28;20136;-73
2021/11/27 00:51:28;;;;;;;9.32;4.75;;;1.10;99.90;;;;;;5054993;28;20045;-74
2021/11/27 00:53:56;;;;;;;9.13;3.60;;;1.10;99.90;;;;;;5049498;28;20064;-73
2021/11/27 00:56:28;;;;;;;5.53;3.85;;;1.10;99.90;;;;;;5034185;28;20591;-73
2021/11/27 00:58:56;;;;;;;6.70;4.60;;;1.10;99.90;;;;;;5051394;28;20140;-73
2021/11/27 01:01:30;;;;;;;6.70;4.28;;;1.10;99.90;;;;;;5051502;28;20076;-72
2021/11/27 01:04:02;;;;;;;6.70;3.92;;;1.00;99.90;;;;;;5053167;28;20104;-73
2021/11/27 01:06:34;;;;;;;5.32;3.67;;;1.00;99.90;;;;;;5051696;28;20095;-73
2021/11/27 01:09:11;;;;;;;5.82;3.92;;;1.00;99.90;;;;;;5052624;28;20052;-73
2021/11/27 01:11:53;;;;;;;6.28;3.97;;;1.00;99.90;;;;;;5051560;28;20094;-73
2021/11/27 01:14:28;;;;;;;9.50;3.70;;;1.10;99.90;;;;;;5050715;28;20495;-73
2021/11/27 01:17:04;;;;;;;5.97;3.70;;;1.10;99.90;;;;;;5050290;28;20107;-72
2021/11/27 01:19:38;;;;;;;5.55;3.75;;;1.10;99.90;;;;;;5034660;28;20128;-73
2021/11/27 01:22:09;;;;;;;5.63;3.67;;;1.10;99.90;;;;;;5050407;28;20045;-73
2021/11/27 01:24:43;;;;;;;4.85;3.35;;;1.10;99.90;;;;;;5034069;28;20167;-72
2021/11/27 01:27:16;;;;;;;5.93;3.72;;;1.10;99.90;;;;;;5034187;28;20041;-73
2021/11/27 01:29:48;;;;;;;5.57;3.40;;;1.10;99.90;;;;;;5050400;28;20048;-73
2021/11/27 01:32:20;;;;;;;6.82;3.50;;;1.10;99.90;;;;;;5034430;28;20129;-72
2021/11/27 01:34:49;;;;;;;5.85;3.65;;;1.20;99.90;;;;;;5050376;28;20041;-73
2021/11/27 01:37:21;;;;;;;5.25;3.28;;;1.10;99.90;;;;;;5049763;28;20595;-73
2021/11/27 01:39:53;;;;;;;5.85;4.25;;;1.20;99.90;;;;;;5050213;28;20139;-73
2021/11/27 01:42:25;;;;;;;4.97;3.78;;;1.10;99.90;;;;;;5034262;28;20137;-73
2021/11/27 01:44:57;;;;;;;5.30;3.40;;;1.10;99.90;;;;;;5050284;28;20455;-72
2021/11/27 01:47:29;;;;;;;6.18;3.47;;;1.10;99.90;;;;;;5049694;28;20045;-72
2021/11/27 01:50:01;;;;;;;4.72;3.15;;;1.10;99.90;;;;;;5034364;28;20045;-73
2021/11/27 01:52:29;;;;;;;5.82;2.97;;;1.10;99.90;;;;;;5049802;28;20575;-73
2021/11/27 01:55:02;;;;;;;4.07;2.90;;;1.10;99.90;;;;;;5049964;28;20036;-73
2021/11/27 01:57:34;;;;;;;5.30;3.50;;;1.00;99.90;;;;;;5049545;28;20055;-72
2021/11/27 02:00:08;;;;;;;5.43;3.50;;;1.00;99.90;;;;;;5049521;28;20037;-72
2021/11/27 02:02:44;;;;;;;4.88;3.08;;;1.00;99.90;;;;;;5049935;28;20049;-73
2021/11/27 02:05:11;;;;;;;4.57;3.30;;;1.00;99.90;;;;;;5049335;28;20053;-73
2021/11/27 02:07:43;;;;;;;4.38;3.05;;;0.90;99.90;;;;;;5033324;28;20049;-73
2021/11/27 02:10:15;;;;;;;4.38;2.90;;;0.90;99.90;;;;;;5049862;28;20488;-73
2021/11/27 02:12:49;;;;;;;4.35;3.05;;;0.80;99.90;;;;;;5049951;28;20045;-73
2021/11/27 02:15:17;;;;;;;4.63;2.97;;;0.80;99.90;;;;;;5049529;28;20045;-73
2021/11/27 02:17:50;;;;;;;4.95;2.85;;;0.70;99.90;;;;;;5048737;28;20045;-74
2021/11/27 02:20:22;;;;;;;5.45;2.83;;;0.70;99.90;;;;;;5049060;28;20617;-73
2021/11/27 02:22:49;;;;;;;4.53;2.80;;;0.70;99.90;;;;;;5049004;28;20052;-73
2021/11/27 02:25:22;;;;;;;4.28;2.67;;;0.70;99.90;;;;;;5050448;28;20079;-73
2021/11/27 02:27:54;;;;;;;5.70;3.03;;;0.60;99.90;;;;;;5048563;28;20069;-73
2021/11/27 02:30:26;;;;;;;5.80;2.83;;;0.60;99.90;;;;;;5049397;28;20119;-73
2021/11/27 02:32:59;;;;;;;3.35;2.33;;;0.60;99.90;;;;;;5048739;28;20041;-73
2021/11/27 02:35:31;;;;;;;4.45;2.92;;;0.60;99.90;;;;;;5050413;28;20037;-73
2021/11/27 02:37:59;;;;;;;4.70;2.67;;;0.60;99.90;;;;;;5053094;28;20048;-73
2021/11/27 02:40:26;;;;;;;3.88;2.80;;;0.60;99.90;;;;;;5053647;28;20053;-73
2021/11/27 02:42:58;;;;;;;5.60;2.85;;;0.60;99.90;;;;;;5053440;28;20135;-74
2021/11/27 02:45:30;;;;;;;5.25;2.92;;;0.50;99.90;;;;;;5053692;28;20041;-73
2021/11/27 02:48:03;;;;;;;3.72;2.50;;;0.50;99.90;;;;;;5053064;28;20052;-72
2021/11/27 02:50:30;;;;;;;4.47;3.22;;;0.50;99.90;;;;;;5053202;28;20131;-73
2021/11/27 02:52:58;;;;;;;6.95;3.47;;;0.40;99.90;;;;;;5053302;28;20060;-73
2021/11/27 02:55:30;;;;;;;6.13;3.55;;;0.40;99.90;;;;;;5037519;28;20068;-73
2021/11/27 02:57:57;;;;;;;5.88;3.22;;;0.30;99.90;;;;;;5052899;28;20044;-73
2021/11/27 03:00:29;;;;;;;6.70;3.40;;;0.20;99.90;;;;;;5053173;28;20076;-73
2021/11/27 03:03:01;;;;;;;5.90;2.78;;;0.20;99.90;;;;;;5053215;28;20143;-73
2021/11/27 03:05:32;;;;;;;6.65;3.20;;;0.20;99.90;;;;;;5053102;28;20453;-73
2021/11/27 03:08:05;;;;;;;5.18;3.45;;;0.20;99.90;;;;;;5036722;28;20037;-72
2021/11/27 03:10:38;;;;;;;4.82;2.63;;;0.10;99.90;;;;;;5037370;28;20396;-73
2021/11/27 03:13:10;;;;;;;4.85;2.88;;;0.10;99.90;;;;;;5037323;28;20136;-72
2021/11/27 03:15:41;;;;;;;4.63;2.97;;;0.20;99.90;;;;;;5055129;28;20442;-72
2021/11/27 03:18:13;;;;;;;3.67;2.42;;;0.20;99.90;;;;;;5039276;28;20520;-73
2021/11/27 03:20:45;;;;;;;3.63;2.00;;;0.20;99.90;;;;;;5053863;28;20045;-73
2021/11/27 03:23:18;;;;;;;3.15;1.98;;;0.30;99.90;;;;;;5052865;28;20041;-73
2021/11/27 03:25:45;;;;;;;4.68;2.13;;;0.30;99.90;;;;;;5052700;28;20045;-73
2021/11/27 03:28:17;;;;;;;3.53;2.42;;;0.30;99.90;;;;;;5036395;28;20503;-73
2021/11/27 03:30:50;;;;;;;3.72;2.17;;;0.30;99.90;;;;;;5036909;28;20040;-72
2021/11/27 03:33:22;;;;;;;3.20;2.17;;;0.30;99.90;;;;;;5036836;28;20044;-73
2021/11/27 03:35:56;;;;;;;2.35;1.52;;;0.30;99.90;;;;;;5052636;28;20041;-72
2021/11/27 03:38:24;;;;;;;3.22;1.90;;;0.30;99.90;;;;;;5052169;28;20106;-73
2021/11/27 03:40:56;;;;;;;2.73;2.33;;;0.30;99.90;;;;;;5052435;28;20458;-72
2021/11/27 03:43:23;;;;;;;3.92;2.40;;;0.30;99.90;;;;;;5052390;28;20476;-73
2021/11/27 03:45:55;;;;;;;3.75;2.70;;;0.30;99.90;;;;;;5052561;28;20133;-73
2021/11/27 03:48:30;;;;;;;4.20;2.47;;;0.30;99.90;;;;;;5051120;28;20037;-73
2021/11/27 03:51:27;;;;;;;5.43;2.80;;;0.30;99.90;;;;;;5053181;28;20116;-72
2021/11/27 03:53:59;;;;;;;4.07;2.20;;;0.30;99.90;;;;;;5036295;28;20557;-73
2021/11/27 03:56:31;;;;;;;3.45;2.03;;;0.20;99.90;;;;;;5052056;28;20052;-73
2021/11/27 03:59:05;;;;;;;3.10;2.22;;;0.20;99.90;;;;;;5052216;28;20064;-72
2021/11/27 04:01:37;;;;;;;3.75;2.38;;;0.20;99.90;;;;;;5036081;28;20565;-73
2021/11/27 04:04:05;;;;;;;3.45;1.98;;;0.10;99.90;;;;;;5052080;28;20115;-73
2021/11/27 04:06:37;;;;;;;3.17;2.20;;;0.10;99.90;;;;;;5035723;28;20073;-73
2021/11/27 04:09:11;;;;;;;2.80;1.83;;;0.10;99.90;;;;;;5051935;28;20127;-73
2021/11/27 04:11:43;;;;;;;4.53;2.35;;;0.10;99.90;;;;;;5051828;28;20132;-73
2021/11/27 04:14:18;;;;;;;3.15;1.98;;;0.00;99.90;;;;;;5051947;28;20047;-73
2021/11/27 04:16:55;;;;;;;4.55;2.45;;;-0.10;99.90;;;;;;5051415;28;20051;-72
2021/11/27 04:19:29;;;;;;;4.05;1.98;;;-0.20;99.90;;;;;;5051723;28;20072;-73
2021/11/27 04:21:55;;;;;;;7.63;2.70;;;-0.20;99.90;;;;;;5052738;28;20068;-73
2021/11/27 04:24:28;;;;;;;4.43;1.92;;;-0.20;99.90;;;;;;5051630;28;20041;-73
2021/11/27 04:26:59;;;;;;;3.38;1.65;;;-0.20;99.90;;;;;;5051205;28;20099;-72
2021/11/27 04:29:31;;;;;;;2.30;1.77;;;-0.20;99.90;;;;;;5035773;28;20037;-72
2021/11/27 04:31:58;;;;;;;3.65;1.90;;;-0.20;99.90;;;;;;5046927;28;20064;-73
2021/11/27 04:34:31;;;;;;;2.53;1.80;;;-0.20;99.90;;;;;;5050449;28;20132;-73
2021/11/27 04:37:04;;;;;;;2.90;1.73;;;-0.20;99.90;;;;;;5042154;28;20044;-72
2021/11/27 04:39:38;;;;;;;4.57;2.67;;;-0.20;99.90;;;;;;5039416;28;20048;-73
2021/11/27 04:42:07;;;;;;;4.78;2.30;;;-0.20;99.90;;;;;;5043205;28;20048;-73
2021/11/27 04:44:34;;;;;;;3.45;2.33;;;-0.20;99.90;;;;;;5051660;28;20174;-73
2021/11/27 04:47:07;;;;;;;3.03;2.10;;;-0.20;99.90;;;;;;5049294;28;20037;-73
2021/11/27 04:49:39;;;;;;;3.78;2.35;;;-0.20;99.90;;;;;;5050396;28;20709;-72
2021/11/27 04:52:06;;;;;;;2.88;2.15;;;-0.20;99.90;;;;;;5049998;28;20565;-73
2021/11/27 04:54:38;;;;;;;2.72;1.67;;;-0.20;99.90;;;;;;5034635;28;20041;-73
2021/11/27 04:57:10;;;;;;;3.72;1.88;;;-0.20;99.90;;;;;;5034342;28;20045;-73
2021/11/27 04:59:43;;;;;;;3.42;2.17;;;-0.10;99.90;;;;;;5049272;28;20415;-73
2021/11/27 05:02:10;;;;;;;4.45;2.17;;;-0.10;99.90;;;;;;5033671;28;20040;-73
2021/11/27 05:04:42;;;;;;;4.47;2.13;;;0.00;99.90;;;;;;5034242;28;20056;-73
2021/11/27 05:07:14;;;;;;;5.13;2.67;;;0.00;99.90;;;;;;5049685;28;20094;-73
2021/11/27 05:09:41;;;;;;;8.63;3.22;;;0.00;99.90;;;;;;5050008;28;20044;-73
2021/11/27 05:12:08;;;;;;;7.95;2.60;;;0.00;99.90;;;;;;5050474;28;20072;-73
2021/11/27 05:14:35;;;;;;;4.93;2.65;;;0.00;99.90;;;;;;5033472;28;20045;-73
2021/11/27 05:17:07;;;;;;;4.40;2.42;;;0.00;99.90;;;;;;5032740;28;20037;-73
2021/11/27 05:19:39;;;;;;;3.60;2.13;;;0.00;99.90;;;;;;5050023;28;20049;-73
2021/11/27 05:22:18;;;;;;;2.85;1.65;;;0.00;99.90;;;;;;5049745;28;20122;-73
2021/11/27 05:24:50;;;;;;;3.58;2.30;;;0.00;99.90;;;;;;5046394;28;20041;-73
2021/11/27 05:27:42;;;;;;;4.05;2.17;;;0.00;99.90;;;;;;5046272;28;20061;-73
2021/11/27 05:30:27;;;;;;;3.95;2.95;;;0.00;99.90;;;;;;5032726;28;20044;-73
2021/11/27 05:35:37;;;;;;;4.70;2.55;;;0.10;99.90;;;;;;5049731;28;20068;-73
2021/11/27 05:38:05;;;;;;;3.25;1.88;;;0.20;99.90;;;;;;5049451;28;20456;-72
2021/11/27 05:40:38;;;;;;;3.00;2.05;;;0.20;99.90;;;;;;5050762;28;20037;-73
2021/11/27 05:43:10;;;;;;;2.85;2.15;;;0.20;99.90;;;;;;5049635;28;20061;-73
2021/11/27 05:45:42;;;;;;;2.92;2.10;;;0.30;99.90;;;;;;5046617;28;20037;-72
2021/11/27 05:48:09;;;;;;;5.00;2.50;;;0.30;99.90;;;;;;5027522;28;20502;-73
2021/11/27 05:50:59;;;;;;;3.55;2.30;;;0.30;99.90;;;;;;5031126;28;20052;-73
2021/11/27 05:53:31;;;;;;;3.08;1.90;;;0.40;99.90;;;;;;5030776;28;20038;-74
2021/11/27 05:56:03;;;;;;;3.90;2.20;;;0.40;99.90;;;;;;5045570;28;20072;-73
2021/11/27 05:58:35;;;;;;;3.63;2.50;;;0.30;99.90;;;;;;5029885;28;20136;-73
2021/11/27 06:01:06;;;;;;;3.78;2.63;;;0.30;99.90;;;;;;5043161;28;20468;-73
2021/11/27 06:03:38;;;;;;;37.08;24.75;;;0.30;99.90;;;;;;5050776;28;20041;-72
2021/11/27 06:06:10;;;;;;;4.25;2.92;;;0.30;99.90;;;;;;5051214;28;20124;-73
2021/11/27 06:08:42;;;;;;;3.85;2.35;;;0.30;99.90;;;;;;5050616;28;20124;-73
2021/11/27 06:11:14;;;;;;;2.88;2.15;;;0.30;99.90;;;;;;5051808;28;20452;-73
2021/11/27 06:13:41;;;;;;;4.10;2.70;;;0.30;99.90;;;;;;5053933;28;20139;-73
2021/11/27 06:16:12;;;;;;;3.80;2.83;;;0.30;99.90;;;;;;5036021;28;20072;-73
2021/11/27 06:18:44;;;;;;;3.65;2.40;;;0.30;99.90;;;;;;5050992;28;20737;-73
2021/11/27 06:21:20;;;;;;;3.80;2.50;;;0.30;99.90;;;;;;5049719;28;20041;-73
2021/11/27 06:23:55;;;;;;;4.72;2.83;;;0.40;99.90;;;;;;5051112;28;20041;-73
2021/11/27 06:26:27;;;;;;;19.83;9.15;;;0.40;99.90;;;;;;5050094;28;20832;-73
2021/11/27 06:28:59;;;;;;;4.20;2.63;;;0.40;99.90;;;;;;5062129;28;20399;-72
2021/11/27 06:31:25;;;;;;;3.75;2.72;;;0.50;99.90;;;;;;5054333;28;20476;-72
2021/11/27 06:34:00;;;;;;;4.18;2.58;;;0.50;99.90;;;;;;5041952;28;20029;-73
2021/11/27 06:36:32;;;;;;;4.32;2.83;;;0.50;99.90;;;;;;5046618;28;20036;-73
2021/11/27 06:39:04;;;;;;;2.70;1.85;;;0.50;99.90;;;;;;5048453;28;20041;-73
2021/11/27 06:41:35;;;;;;;3.38;2.30;;;0.50;99.90;;;;;;5047604;28;20045;-73
2021/11/27 06:44:26;;;;;;;4.57;2.90;;;0.70;99.90;;;;;;5050581;28;20566;-73
2021/11/27 06:46:58;;;;;;;3.95;2.10;;;0.70;99.90;;;;;;5047896;28;20044;-73
2021/11/27 06:49:25;;;;;;;3.58;2.15;;;0.80;99.90;;;;;;5048949;28;20478;-73
2021/11/27 06:51:52;;;;;;;4.68;2.20;;;0.90;99.90;;;;;;5049330;28;20552;-73
2021/11/27 06:54:19;;;;;;;3.83;2.20;;;1.20;99.90;;;;;;5043421;28;20037;-73
2021/11/27 06:56:51;;;;;;;3.10;2.10;;;1.40;99.90;;;;;;5048955;28;20033;-73
2021/11/27 06:59:26;;;;;;;3.67;3.00;;;1.50;99.90;;;;;;5043346;28;20521;-73
2021/11/27 07:02:26;;;;;;;3.05;2.20;;;1.60;99.90;;;;;;5035559;28;20060;-73
2021/11/27 07:05:16;;;;;;;3.22;2.33;;;1.70;99.90;;;;;;5041590;28;20080;-73
2021/11/27 07:07:46;;;;;;;2.75;2.03;;;1.90;99.90;;;;;;5046693;28;20053;-73
2021/11/27 07:10:32;;;;;;;3.38;2.08;;;2.00;99.90;;;;;;5046764;28;20051;-72
2021/11/27 07:13:13;;;;;;;3.05;2.00;;;2.00;99.90;;;;;;5048956;28;20457;-72
2021/11/27 07:15:40;;;;;;;4.03;2.67;;;2.00;99.90;;;;;;5027683;28;20061;-72
2021/11/27 07:18:12;;;;;;;3.60;2.38;;;1.90;99.90;;;;;;5043680;28;20133;-73
2021/11/27 07:20:44;;;;;;;2.88;2.17;;;1.90;99.90;;;;;;5029655;28;20140;-73
2021/11/27 07:23:16;;;;;;;3.60;2.42;;;1.90;99.90;;;;;;5029835;28;20053;-73
2021/11/27 07:25:48;;;;;;;3.78;2.75;;;1.90;99.90;;;;;;5045261;28;20041;-72
2021/11/27 07:28:50;;;;;;;8.95;6.03;;;1.90;99.90;;;;;;5046532;28;20045;-73
2021/11/27 07:31:17;;;;;;;3.63;2.45;;;1.80;99.90;;;;;;5038682;28;20050;-73
2021/11/27 07:33:49;;;;;;;3.17;2.30;;;1.80;99.90;;;;;;5047877;28;20078;-72
2021/11/27 07:36:16;;;;;;;4.50;3.03;;;1.80;99.90;;;;;;5044822;28;20121;-72
2021/11/27 07:38:47;;;;;;;4.43;2.50;;;1.80;99.90;;;;;;5035082;28;20041;-72
2021/11/27 07:41:15;;;;;;;4.05;2.92;;;1.80;99.90;;;;;;5042020;28;20088;-73
2021/11/27 07:43:41;;;;;;;4.78;3.00;;;1.80;99.90;;;;;;5048968;28;20041;-74
2021/11/27 07:46:33;;;;;;;4.15;2.95;;;1.90;99.90;;;;;;5045575;28;20037;-73
2021/11/27 07:49:20;;;;;;;6.32;4.28;;;1.80;99.90;;;;;;5031854;28;20141;-73
2021/11/27 07:52:27;;;;;;;4.45;3.00;;;1.80;99.90;;;;;;4999121;28;20045;-73
2021/11/27 07:54:54;;;;;;;4.60;2.97;;;1.80;99.90;;;;;;5028356;28;20096;-73
2021/11/27 07:57:26;;;;;;;5.75;3.40;;;1.80;99.90;;;;;;5031219;28;20135;-73
2021/11/27 07:59:57;;;;;;;3.35;3.00;;;1.90;99.90;;;;;;5033248;28;20045;-73
2021/11/27 08:02:24;;;;;;;5.35;2.95;;;1.90;99.90;;;;;;5030949;28;20072;-73
2021/11/27 08:04:51;;;;;;;3.83;2.80;;;2.00;99.90;;;;;;5031368;28;20113;-73
2021/11/27 08:07:23;;;;;;;4.55;2.90;;;1.90;99.90;;;;;;5030928;28;20391;-73
2021/11/27 08:09:55;;;;;;;5.05;3.25;;;2.00;99.90;;;;;;5032555;28;20072;-73
2021/11/27 08:12:22;;;;;;;4.85;3.28;;;2.00;99.90;;;;;;5030897;28;20120;-74
2021/11/27 08:14:54;;;;;;;5.13;3.47;;;2.00;99.90;;;;;;5032224;28;20059;-74
2021/11/27 08:17:26;;;;;;;4.18;3.40;;;2.00;99.90;;;;;;5031161;28;20045;-73
2021/11/27 08:19:53;;;;;;;4.32;3.08;;;2.00;99.90;;;;;;5033026;28;20045;-72
2021/11/27 08:22:19;;;;;;;5.50;3.20;;;2.00;99.90;;;;;;5031749;28;20483;-73
2021/11/27 08:24:51;;;;;;;5.15;3.72;;;2.10;99.90;;;;;;5044830;28;20127;-74
2021/11/27 08:27:27;;;;;;;4.43;3.45;;;2.10;99.90;;;;;;5050979;28;20045;-74
2021/11/27 08:29:59;;;;;;;5.85;3.50;;;2.10;99.90;;;;;;5052760;28;20124;-73
2021/11/27 08:32:26;;;;;;;4.80;3.47;;;2.10;99.90;;;;;;5052516;28;20499;-73
2021/11/27 08:34:59;;;;;;;5.82;4.70;;;2.10;99.90;;;;;;5050954;28;20143;-72
2021/11/27 08:37:30;;;;;;;4.65;3.50;;;2.20;99.90;;;;;;5055203;28;20047;-73
2021/11/27 08:40:03;;;;;;;5.22;3.90;;;2.20;99.90;;;;;;5049910;28;20049;-73
2021/11/27 08:42:35;;;;;;;5.57;3.92;;;2.20;99.90;;;;;;5051724;28;20411;-73
2021/11/27 08:45:07;;;;;;;5.90;4.25;;;2.30;99.90;;;;;;5051879;28;20120;-73
2021/11/27 08:47:39;;;;;;;7.03;5.68;;;2.30;99.90;;;;;;5050375;28;20517;-73
2021/11/27 08:50:12;;;;;;;5.28;4.07;;;2.30;99.90;;;;;;5051905;28;20532;-73
2021/11/27 08:52:44;;;;;;;8.63;4.05;;;2.40;99.90;;;;;;5050714;28;20041;-74
2021/11/27 08:55:11;;;;;;;6.72;4.00;;;2.40;99.90;;;;;;5051828;28;20076;-73
2021/11/27 08:57:43;;;;;;;6.28;4.22;;;2.40;99.90;;;;;;5049088;28;20559;-73
2021/11/27 09:00:15;;;;;;;5.53;3.65;;;2.40;99.90;;;;;;5051887;28;20120;-73
2021/11/27 09:02:42;;;;;;;6.18;4.38;;;2.50;99.90;;;;;;5050433;28;20475;-74
2021/11/27 09:05:09;;;;;;;7.90;4.70;;;2.50;99.90;;;;;;5050372;28;20053;-73
2021/11/27 09:07:42;;;;;;;7.65;4.35;;;2.50;99.90;;;;;;5053297;28;20396;-73
2021/11/27 09:10:15;;;;;;;6.00;3.95;;;2.60;99.90;;;;;;5051799;28;20136;-73
2021/11/27 09:12:42;;;;;;;6.63;4.30;;;2.60;99.90;;;;;;5049901;28;20219;-73
2021/11/27 09:15:14;;;;;;;4.88;3.50;;;2.60;99.90;;;;;;5048789;28;20132;-73
2021/11/27 09:17:45;;;;;;;6.10;3.88;;;2.70;99.90;;;;;;5050866;28;20449;-73
2021/11/27 09:20:18;;;;;;;4.60;3.13;;;2.80;99.90;;;;;;5033708;28;20526;-74
2021/11/27 09:22:44;;;;;;;4.72;3.30;;;2.80;99.90;;;;;;5030531;28;20080;-73
2021/11/27 09:25:16;;;;;;;4.38;3.17;;;2.90;99.90;;;;;;5030914;28;20514;-73
2021/11/27 09:27:43;;;;;;;5.38;3.30;;;3.00;99.90;;;;;;5031701;28;20467;-73
2021/11/27 09:30:15;;;;;;;4.85;3.20;;;3.00;99.90;;;;;;5015004;28;20041;-73
2021/11/27 09:32:41;;;;;;;4.55;3.55;;;3.10;99.90;;;;;;5030453;28;20079;-73
2021/11/27 09:35:09;;;;;;;5.07;3.60;;;3.10;99.90;;;;;;5030550;28;20038;-73
2021/11/27 09:37:41;;;;;;;4.68;3.17;;;3.20;99.90;;;;;;5030304;28;20094;-74
2021/11/27 09:40:10;;;;;;;4.85;3.40;;;3.20;99.90;;;;;;5030551;28;20120;-73
2021/11/27 09:42:42;;;;;;;;;;;3.20;99.90;;;;;;5030817;28;20136;-73
2021/11/27 09:45:14;;;;;;;4.90;3.67;;;3.20;99.90;;;;;;5029848;28;20023;-73
2021/11/27 09:47:46;;;;;;;5.03;3.50;;;3.20;99.90;;;;;;5031285;28;20128;-73
2021/11/27 09:50:19;;;;;;;4.28;3.25;;;3.20;99.90;;;;;;5035303;28;20113;-73
2021/11/27 09:52:47;;;;;;;5.80;3.53;;;3.10;99.90;;;;;;5044869;28;20079;-73
2021/11/27 09:55:19;;;;;;;6.70;3.85;;;3.10;99.90;;;;;;5049716;28;20087;-72
2021/11/27 09:57:51;;;;;;;6.43;3.72;;;3.10;99.90;;;;;;5028726;28;20075;-73
2021/11/27 10:00:22;;;;;;;6.60;4.57;;;3.10;99.90;;;;;;5013625;28;20049;-73
2021/11/27 10:02:56;;;;;;;5.05;3.92;;;3.10;99.90;;;;;;5030757;28;20120;-73
2021/11/27 10:05:23;;;;;;;5.28;3.83;;;3.10;99.90;;;;;;5029223;28;20124;-73
2021/11/27 10:07:56;;;;;;;4.20;3.30;;;3.10;99.90;;;;;;5030263;28;20087;-73
2021/11/27 10:10:28;;;;;;;4.25;3.03;;;3.20;99.90;;;;;;5030819;28;20049;-73
2021/11/27 10:13:00;;;;;;;4.38;3.40;;;3.20;99.90;;;;;;5030055;28;20556;-73
2021/11/27 10:15:27;;;;;;;4.18;3.20;;;3.20;99.90;;;;;;5031037;28;20080;-73
2021/11/27 10:18:13;;;;;;;5.00;3.53;;;3.30;99.90;;;;;;5033161;28;20280;-73
2021/11/27 10:20:40;;;;;;;4.43;3.20;;;3.30;99.90;;;;;;5048150;28;20484;-73
2021/11/27 10:23:12;;;;;;;5.20;3.47;;;3.40;99.90;;;;;;5048659;28;20073;-73
2021/11/27 10:25:43;;;;;;;3.90;2.85;;;3.30;99.90;;;;;;5049001;28;20068;-73
2021/11/27 10:28:18;;;;;;;4.55;3.00;;;3.30;99.90;;;;;;5047885;28;20076;-72
2021/11/27 10:30:50;;;;;;;4.85;3.58;;;3.30;99.90;;;;;;5048780;28;20041;-73
2021/11/27 10:33:23;;;;;;;4.53;3.22;;;3.30;99.90;;;;;;5050124;28;20494;-73
2021/11/27 10:36:02;;;;;;;4.68;3.28;;;3.30;99.90;;;;;;5050127;28;20095;-73
2021/11/27 10:38:44;;;;;;;4.40;3.38;;;3.30;99.90;;;;;;5048531;28;20495;-73
2021/11/27 10:41:18;;;;;;;5.10;3.10;;;3.30;99.90;;;;;;5048827;28;20040;-73
2021/11/27 10:44:00;;;;;;;4.15;3.13;;;3.30;99.90;;;;;;5050240;28;20457;-73
2021/11/27 10:46:39;;;;;;;5.00;4.10;;;3.20;99.90;;;;;;5050008;28;20040;-73
2021/11/27 10:49:24;;;;;;;4.53;3.53;;;3.30;99.90;;;;;;5048100;28;20480;-74
2021/11/27 10:52:17;;;;;;;4.53;3.33;;;3.30;99.90;;;;;;5033006;28;20037;-73
2021/11/27 10:54:49;;;;;;;4.68;3.20;;;3.30;99.90;;;;;;5048855;28;20128;-74
2021/11/27 10:57:33;;;;;;;3.92;2.90;;;3.40;99.90;;;;;;5048474;28;20515;-73
2021/11/27 11:00:09;;;;;;;4.80;3.45;;;3.30;99.90;;;;;;5053523;28;20037;-73
2021/11/27 11:02:41;;;;;;;4.65;3.38;;;3.40;99.90;;;;;;5035167;28;20555;-73
2021/11/27 11:05:14;;;;;;;3.83;3.00;;;3.40;99.90;;;;;;5034082;28;20125;-73
2021/11/27 11:07:51;;;;;;;4.40;3.67;;;3.40;99.90;;;;;;5032272;28;20392;-73
2021/11/27 11:10:19;;;;;;;3.92;3.28;;;3.40;99.90;;;;;;5032337;28;20485;-72
2021/11/27 11:12:59;;;;;;;5.75;3.95;;;3.40;99.90;;;;;;5032617;28;20068;-73
2021/11/27 11:15:31;;;;;;;4.18;3.20;;;3.30;99.90;;;;;;5033762;28;20099;-73
2021/11/27 11:18:09;;;;;;;4.00;2.97;;;3.30;99.90;;;;;;5017037;28;20083;-73
2021/11/27 11:20:57;;;;;;;4.50;3.05;;;3.40;99.90;;;;;;5033114;28;20492;-73
2021/11/27 11:23:29;;;;;;;4.10;3.00;;;3.40;99.90;;;;;;5042069;28;20496;-73
2021/11/27 11:26:14;;;;;;;3.92;3.10;;;3.40;99.90;;;;;;5035387;28;20041;-73
2021/11/27 11:28:48;;;;;;;4.18;2.85;;;3.40;99.90;;;;;;5016072;28;20099;-73
2021/11/27 11:31:26;;;;;;;4.85;3.47;;;3.40;99.90;;;;;;5032512;28;20083;-73
2021/11/27 11:33:57;;;;;;;6.65;4.85;;;3.40;99.90;;;;;;5034131;28;20033;-73
2021/11/27 11:36:29;;;;;;;5.55;3.90;;;3.40;99.90;;;;;;5033993;28;20522;-73
2021/11/27 11:39:02;;;;;;;4.50;3.38;;;3.40;99.90;;;;;;5016498;28;20068;-72
2021/11/27 11:41:29;;;;;;;4.28;3.88;;;3.40;99.90;;;;;;5016123;28;20459;-73
2021/11/27 11:44:01;;;;;;;5.22;3.30;;;3.40;99.90;;;;;;5016678;28;20411;-73
2021/11/27 11:46:35;;;;;;;4.70;3.50;;;3.40;99.90;;;;;;5033463;28;20046;-73
2021/11/27 11:49:07;;;;;;;5.15;3.95;;;3.40;99.90;;;;;;5031904;28;20045;-73
2021/11/27 11:51:54;;;;;;;4.63;3.47;;;3.50;99.90;;;;;;5031168;28;20369;-73
2021/11/27 11:54:29;;;;;;;4.22;3.10;;;3.50;99.90;;;;;;5029729;28;20452;-73
2021/11/27 11:57:12;;;;;;;3.75;2.90;;;3.60;99.90;;;;;;5030999;28;20234;-73
2021/11/27 11:59:40;;;;;;;4.75;3.17;;;3.60;99.90;;;;;;5032346;28;20149;-73
2021/11/27 12:02:28;;;;;;;4.40;3.45;;;3.60;99.90;;;;;;5034211;28;20128;-72
2021/11/27 12:05:11;;;;;;;3.90;3.22;;;3.60;99.90;;;;;;5034381;28;20033;-73
2021/11/27 12:07:50;;;;;;;4.50;3.05;;;3.60;99.90;;;;;;5031882;28;20076;-74
2021/11/27 12:10:40;;;;;;;4.75;3.45;;;3.60;99.90;;;;;;5031851;28;20065;-73
2021/11/27 12:13:10;;;;;;;4.22;3.20;;;3.60;99.90;;;;;;5031805;28;20080;-73
2021/11/27 12:15:45;;;;;;;3.90;3.10;;;3.60;99.90;;;;;;5046541;28;20124;-73
2021/11/27 12:18:18;;;;;;;4.72;3.50;;;3.60;99.90;;;;;;5035198;28;20140;-73
2021/11/27 12:20:53;;;;;;;4.10;3.03;;;3.60;99.90;;;;;;5051262;28;20406;-74
2021/11/27 12:26:14;;;;;;;4.28;3.42;;;3.60;99.90;;;;;;5052466;28;20498;-73
2021/11/27 12:28:50;;;;;;;4.07;3.20;;;3.70;99.90;;;;;;5050783;28;20084;-73
2021/11/27 12:31:23;;;;;;;4.28;2.90;;;3.60;99.90;;;;;;5035685;28;20140;-73
2021/11/27 12:33:53;;;;;;;5.30;3.17;;;3.60;99.90;;;;;;5052567;28;20471;-73
2021/11/27 12:36:26;;;;;;;6.20;3.35;;;3.60;99.90;;;;;;5052239;28;20090;-73
2021/11/27 12:39:17;;;;;;;4.85;2.80;;;3.70;99.90;;;;;;5034683;28;20816;-73
2021/11/27 12:41:53;;;;;;;4.55;3.15;;;3.90;99.90;;;;;;5051013;28;20477;-73
2021/11/27 12:44:40;;;;;;;4.07;2.72;;;4.00;99.90;;;;;;5051191;28;20124;-73
2021/11/27 12:47:12;;;;;;;6.75;3.08;;;4.10;99.90;;;;;;5051075;28;20041;-72
2021/11/27 12:49:43;;;;;;;3.17;2.40;;;4.10;99.90;;;;;;5050984;28;20055;-73
2021/11/27 12:52:23;;;;;;;3.45;2.70;;;4.10;99.90;;;;;;5050782;28;20045;-73
2021/11/27 12:55:17;;;;;;;4.45;3.08;;;4.10;99.90;;;;;;5052271;28;20673;-73
2021/11/27 12:57:49;;;;;;;3.83;2.78;;;4.10;99.90;;;;;;5047047;28;20124;-72
2021/11/27 13:00:23;;;;;;;4.07;3.10;;;4.00;99.90;;;;;;5030910;28;20558;-73
2021/11/27 13:03:05;;;;;;;3.88;3.22;;;3.90;99.90;;;;;;5037505;28;20499;-73
2021/11/27 13:05:40;;;;;;;5.18;2.83;;;3.80;99.90;;;;;;5063243;28;20135;-73
2021/11/27 13:08:23;;;;;;;3.75;3.00;;;3.80;99.90;;;;;;5070172;28;20131;-73
2021/11/27 13:10:52;;;;;;;3.60;2.42;;;3.80;99.90;;;;;;5071595;28;20487;-73
2021/11/27 13:13:34;;;;;;;;;;;3.80;99.90;;;;;;5071090;28;20044;-73
2021/11/27 13:16:10;;;;;;;5.28;3.45;;;3.70;99.90;;;;;;5070587;28;20461;-73
2021/11/27 13:18:49;;;;;;;3.15;2.75;;;3.70;99.90;;;;;;5054446;28;20131;-73
2021/11/27 13:21:16;;;;;;;3.35;2.40;;;3.70;99.90;;;;;;5069393;28;20460;-74
2021/11/27 13:23:43;;;;;;;3.67;2.75;;;3.70;99.90;;;;;;5070275;28;20139;-73
2021/11/27 13:26:18;;;;;;;3.28;2.20;;;3.70;99.90;;;;;;5070484;28;20506;-73
2021/11/27 13:28:55;;;;;;;5.15;2.67;;;3.70;99.90;;;;;;5071320;28;20131;-73
2021/11/27 13:31:28;;;;;;;3.72;2.78;;;3.70;99.90;;;;;;5070091;28;20127;-73
2021/11/27 13:34:09;;;;;;;4.63;2.53;;;3.70;99.90;;;;;;5070346;28;20135;-73